Land O Lakes, Florida
Current Conditions -  °F | °C
As of 12:40 AM on Monday 22 Dec 2014 (Local Time) from KBKV Reporting Station
Heavy Rain Heavy Rain  
Wind Chill: 64°   Ceiling: 2800
Heat Index: 64°   Visibility: 0.75mi
Dew Point: 63°   Wind: 7mph
Humidity: 96%   Direction: 30°NNE
Pressure: 30.04"   Gusts: NA
Location:  28.28°N, 82.45°W
Report Text: KBKV 220540Z AUTO 03006KT 3/4SM +RA BR SCT021 BKN028 OVC037 18/17 A3004 RMK AO2 TSE0459B06E21 P0055 T01780172
Loading
Personal Weather Stations






























Interactive Weather Map New forecast layout! Learn more

10-Day Weather Forecast

Advertisements
Track Severe Weather on mobile